Aalburg, Netherlands
Current Conditions -  °F | °C
As of 9:55 PM on Tuesday 21 Oct 2014 (Local Time) from EHGR Reporting Station
Scattered Clouds Scattered Clouds  
Wind Chill: 50°   Ceiling: Unl
Heat Index: 50°   Visibility: 6mi
Dew Point: 41°   Wind: 25mph
Humidity: 71%   Direction: 290°WNW
Pressure: 29.74"   Gusts: NA
Location:  51.75°N, 5.13°E
Report Text: EHGR 211955Z AUTO 29022KT 9999 FEW037 SCT042 10/05 Q1007 BLU 29019G32KT 9999 SCT020 SCT030 TEMPO 27028G40KT 3500 SHRA SCT010 BKN015CB
Loading
Personal Weather Stations






























Interactive Weather Map
Tropical Storm Tracking
New forecast layout! Learn more

10-Day Weather Forecast

Advertisements
Track Severe Weather on mobile